Time;durP1;ratioP1;P1;durP2;ratioP2;P2;SDS_P1;SDS_P2;PMS_P1;PMS_P2;Temp;Humidity;BMP_temperature;BMP_pressure;BME280_temperature;BME280_humidity;BME280_pressure;Samples;Min_cycle;Max_cycle;Signal;HPM_P1;HPM_P2
2021/05/04 00:01:15;;;;;;;9.17;5.30;;;4.90;99.90;;;;;;4440415;32;20277;-75
2021/05/04 00:03:42;;;;;;;9.57;5.70;;;4.90;99.90;;;;;;4440219;32;20435;-76
2021/05/04 00:06:08;;;;;;;8.17;5.10;;;4.90;99.90;;;;;;4440583;32;20147;-76
2021/05/04 00:08:34;;;;;;;11.20;5.60;;;4.90;99.90;;;;;;4440584;32;20172;-75
2021/05/04 00:11:01;;;;;;;10.20;5.10;;;4.90;99.90;;;;;;4444988;32;20150;-76
2021/05/04 00:13:28;;;;;;;9.17;5.27;;;4.80;99.90;;;;;;4457230;32;20207;-76
2021/05/04 00:15:54;;;;;;;8.17;5.23;;;4.80;99.90;;;;;;4441781;32;20181;-76
2021/05/04 00:18:20;;;;;;;10.17;5.33;;;4.80;99.90;;;;;;4457473;32;20152;-76
2021/05/04 00:20:47;;;;;;;8.13;5.67;;;4.70;99.90;;;;;;4456451;32;20211;-76
2021/05/04 00:23:14;;;;;;;11.03;5.60;;;4.70;99.90;;;;;;4455318;32;20174;-75
2021/05/04 00:25:40;;;;;;;9.80;5.87;;;4.60;99.90;;;;;;4455213;32;20158;-75
2021/05/04 00:28:06;;;;;;;9.30;5.40;;;4.60;99.90;;;;;;4455449;32;20490;-75
2021/05/04 00:30:53;;;;;;;10.50;6.10;;;4.60;99.90;;;;;;4456299;32;20145;-76
2021/05/04 00:33:19;;;;;;;8.43;5.73;;;4.60;99.90;;;;;;4455806;32;20170;-76
2021/05/04 00:35:46;;;;;;;10.37;5.60;;;4.60;99.90;;;;;;4457272;32;20169;-76
2021/05/04 00:38:12;;;;;;;10.27;5.73;;;4.60;99.90;;;;;;4455705;32;20138;-76
2021/05/04 00:40:39;;;;;;;10.77;5.60;;;4.60;99.90;;;;;;4456546;32;20141;-76
2021/05/04 00:43:05;;;;;;;8.67;5.53;;;4.50;99.90;;;;;;4456224;32;20218;-76
2021/05/04 00:45:32;;;;;;;9.73;6.23;;;4.50;99.90;;;;;;4456044;32;20181;-75
2021/05/04 00:47:58;;;;;;;11.17;6.07;;;4.50;99.90;;;;;;4455535;32;20468;-76
2021/05/04 00:50:24;;;;;;;9.10;5.87;;;4.50;99.90;;;;;;4455076;32;20464;-76
2021/05/04 00:52:52;;;;;;;9.80;5.77;;;4.50;99.90;;;;;;4455397;32;20170;-76
2021/05/04 00:55:20;;;;;;;9.87;5.97;;;4.50;99.90;;;;;;4455779;32;20433;-76
2021/05/04 00:57:48;;;;;;;15.00;6.03;;;4.40;99.90;;;;;;4455506;32;20496;-75
2021/05/04 01:00:16;;;;;;;11.90;6.30;;;4.40;99.90;;;;;;4453954;32;20567;-75
2021/05/04 01:02:43;;;;;;;8.30;5.33;;;4.40;99.90;;;;;;4453122;32;20174;-75
2021/05/04 01:05:11;;;;;;;11.90;6.00;;;4.30;99.90;;;;;;4455347;32;20155;-75
2021/05/04 01:07:37;;;;;;;9.33;6.03;;;4.30;99.90;;;;;;4455340;32;20189;-75
2021/05/04 01:10:06;;;;;;;9.40;5.83;;;4.30;99.90;;;;;;4455351;32;20150;-75
2021/05/04 01:12:33;;;;;;;11.53;6.80;;;4.30;99.90;;;;;;4454539;32;20163;-75
2021/05/04 01:14:59;;;;;;;9.77;6.00;;;4.30;99.90;;;;;;4456620;32;20148;-75
2021/05/04 01:17:26;;;;;;;9.87;5.83;;;4.30;99.90;;;;;;4455393;32;20195;-75
2021/05/04 01:19:53;;;;;;;10.60;6.10;;;4.30;99.90;;;;;;4455218;32;20142;-75
2021/05/04 01:22:19;;;;;;;9.40;6.17;;;4.30;99.90;;;;;;4455223;32;20140;-75
2021/05/04 01:24:45;;;;;;;9.53;5.90;;;4.30;99.90;;;;;;4455893;32;20181;-75
2021/05/04 01:27:15;;;;;;;10.80;6.07;;;4.20;99.90;;;;;;4455137;32;20193;-75
2021/05/04 01:29:43;;;;;;;10.10;5.87;;;4.20;99.90;;;;;;4455154;32;20355;-75
2021/05/04 01:32:12;;;;;;;9.80;6.20;;;4.20;99.90;;;;;;4454593;32;20150;-75
2021/05/04 01:34:38;;;;;;;10.43;5.80;;;4.10;99.90;;;;;;4455108;32;20211;-75
2021/05/04 01:37:05;;;;;;;12.53;6.80;;;4.10;99.90;;;;;;4455688;32;20481;-75
2021/05/04 01:39:44;;;;;;;11.30;6.63;;;4.10;99.90;;;;;;4456581;32;20142;-76
2021/05/04 01:42:12;;;;;;;11.67;6.37;;;4.20;99.90;;;;;;4455361;32;20349;-76
2021/05/04 01:44:38;;;;;;;13.00;6.87;;;4.10;99.90;;;;;;4455112;32;20169;-76
2021/05/04 01:47:05;;;;;;;11.83;7.10;;;4.10;99.90;;;;;;4455064;32;20558;-76
2021/05/04 01:49:32;;;;;;;11.80;6.53;;;4.10;99.90;;;;;;4454988;32;20167;-75
2021/05/04 01:52:02;;;;;;;12.90;6.87;;;4.10;99.90;;;;;;4455019;32;20170;-74
2021/05/04 01:54:28;;;;;;;11.13;6.77;;;4.00;99.90;;;;;;4454834;32;20158;-75
2021/05/04 01:56:57;;;;;;;10.50;6.17;;;4.00;99.90;;;;;;4455397;32;20165;-75
2021/05/04 01:59:28;;;;;;;12.73;6.93;;;4.00;99.90;;;;;;4454977;32;20142;-75
2021/05/04 02:01:56;;;;;;;11.97;6.73;;;4.00;99.90;;;;;;4456184;32;20227;-75
2021/05/04 02:04:24;;;;;;;14.97;6.83;;;4.00;99.90;;;;;;4455683;32;20444;-75
2021/05/04 02:06:52;;;;;;;10.90;6.70;;;4.00;99.90;;;;;;4456336;32;20148;-75
2021/05/04 02:09:18;;;;;;;10.30;6.43;;;4.00;99.90;;;;;;4454922;32;20495;-75
2021/05/04 02:11:45;;;;;;;12.50;6.67;;;3.90;99.90;;;;;;4455119;32;20187;-75
2021/05/04 02:14:11;;;;;;;12.10;6.53;;;3.90;99.90;;;;;;4455118;32;20174;-75
2021/05/04 02:16:38;;;;;;;12.97;6.63;;;3.80;99.90;;;;;;4455454;32;20198;-75
2021/05/04 02:19:04;;;;;;;13.67;7.03;;;3.80;99.90;;;;;;4456366;32;20172;-75
2021/05/04 02:21:31;;;;;;;12.53;6.93;;;3.80;99.90;;;;;;4455059;32;20213;-75
2021/05/04 02:23:58;;;;;;;12.37;6.80;;;3.80;99.90;;;;;;4456281;32;20142;-76
2021/05/04 02:26:24;;;;;;;9.53;6.63;;;3.70;99.90;;;;;;4458351;32;20437;-75
2021/05/04 02:28:51;;;;;;;12.47;6.70;;;3.80;99.90;;;;;;4457148;32;20462;-75
2021/05/04 02:31:17;;;;;;;11.67;6.90;;;3.80;99.90;;;;;;4444687;32;20386;-75
2021/05/04 02:33:44;;;;;;;10.33;6.23;;;3.80;99.90;;;;;;4459085;32;20140;-75
2021/05/04 02:36:11;;;;;;;13.13;6.73;;;3.80;99.90;;;;;;4457022;32;20158;-75
2021/05/04 02:38:39;;;;;;;12.97;6.67;;;3.80;99.90;;;;;;4457578;32;20183;-75
2021/05/04 02:41:07;;;;;;;10.27;6.13;;;3.70;99.90;;;;;;4457465;32;20214;-75
2021/05/04 02:43:34;;;;;;;10.00;6.40;;;3.70;99.90;;;;;;4457811;32;20146;-75
2021/05/04 02:46:01;;;;;;;10.53;6.60;;;3.80;99.90;;;;;;4458881;32;20134;-75
2021/05/04 02:48:28;;;;;;;10.93;6.60;;;3.70;99.90;;;;;;4458029;32;20176;-75
2021/05/04 02:50:55;;;;;;;12.13;6.70;;;3.80;99.90;;;;;;4457269;32;20421;-75
2021/05/04 02:53:21;;;;;;;9.23;5.83;;;3.70;99.90;;;;;;4457537;32;20146;-77
2021/05/04 02:55:48;;;;;;;11.17;6.30;;;3.70;99.90;;;;;;4458662;32;20219;-75
2021/05/04 02:58:14;;;;;;;9.77;6.33;;;3.80;99.90;;;;;;4457176;32;20146;-75
2021/05/04 03:00:41;;;;;;;10.33;5.67;;;3.60;99.90;;;;;;4457185;32;20192;-75
2021/05/04 03:03:07;;;;;;;11.83;6.20;;;3.60;99.90;;;;;;4458646;32;20147;-75
2021/05/04 03:05:34;;;;;;;13.63;6.00;;;3.60;99.90;;;;;;4458623;32;20421;-75
2021/05/04 03:08:00;;;;;;;10.60;5.43;;;3.60;99.90;;;;;;4457005;32;20464;-75
2021/05/04 03:10:27;;;;;;;13.90;6.63;;;3.50;99.90;;;;;;4457069;32;20396;-75
2021/05/04 03:12:53;;;;;;;9.37;5.87;;;3.50;99.90;;;;;;4456941;32;20203;-75
2021/05/04 03:15:19;;;;;;;10.83;5.87;;;3.60;99.90;;;;;;4457199;32;20146;-75
2021/05/04 03:17:46;;;;;;;12.20;6.30;;;3.60;99.90;;;;;;4458390;32;20169;-75
2021/05/04 03:20:13;;;;;;;10.47;5.93;;;3.60;99.90;;;;;;4456901;32;20460;-75
2021/05/04 03:22:39;;;;;;;10.83;5.87;;;3.60;99.90;;;;;;4458318;32;20134;-75
2021/05/04 03:25:06;;;;;;;11.90;6.10;;;3.60;99.90;;;;;;4456359;32;20194;-75
2021/05/04 03:27:32;;;;;;;11.13;6.10;;;3.60;99.90;;;;;;4456677;32;20141;-75
2021/05/04 03:29:59;;;;;;;13.53;6.50;;;3.50;99.90;;;;;;4456502;32;20176;-75
2021/05/04 03:32:25;;;;;;;10.60;6.20;;;3.60;99.90;;;;;;4456750;32;20182;-75
2021/05/04 03:34:52;;;;;;;11.70;6.63;;;3.60;99.90;;;;;;4457448;32;20139;-75
2021/05/04 03:37:18;;;;;;;11.83;6.80;;;3.60;99.90;;;;;;4456405;32;20192;-75
2021/05/04 03:39:45;;;;;;;12.97;6.57;;;3.60;99.90;;;;;;4458157;32;20188;-75
2021/05/04 03:42:11;;;;;;;10.40;6.47;;;3.70;99.90;;;;;;4456526;32;20142;-75
2021/05/04 03:44:38;;;;;;;10.70;6.40;;;3.70;99.90;;;;;;4458013;32;20513;-75
2021/05/04 03:47:04;;;;;;;12.23;6.53;;;3.60;99.90;;;;;;4456325;32;20154;-74
2021/05/04 03:49:31;;;;;;;10.67;6.63;;;3.70;99.90;;;;;;4456380;32;20183;-75
2021/05/04 03:51:57;;;;;;;10.60;6.37;;;3.70;99.90;;;;;;4457891;32;20487;-73
2021/05/04 03:54:24;;;;;;;12.33;6.60;;;3.70;99.90;;;;;;4457583;32;20158;-74
2021/05/04 03:56:51;;;;;;;14.80;6.70;;;3.70;99.90;;;;;;4457823;32;20146;-74
2021/05/04 03:59:18;;;;;;;12.60;6.70;;;3.70;99.90;;;;;;4457236;32;20196;-74
2021/05/04 04:01:44;;;;;;;12.50;6.80;;;3.70;99.90;;;;;;4442346;32;20209;-74
2021/05/04 04:04:11;;;;;;;11.23;6.93;;;3.70;99.90;;;;;;4456038;32;20192;-74
2021/05/04 04:06:37;;;;;;;12.23;6.57;;;3.80;99.90;;;;;;4455390;32;20181;-74
2021/05/04 04:09:04;;;;;;;12.77;6.67;;;3.80;99.90;;;;;;4457654;32;20193;-74
2021/05/04 04:11:30;;;;;;;9.20;5.83;;;3.90;99.90;;;;;;4456093;32;20150;-74
2021/05/04 04:13:57;;;;;;;11.77;7.13;;;4.00;99.90;;;;;;4456888;32;20400;-74
2021/05/04 04:16:23;;;;;;;10.23;6.53;;;3.90;99.90;;;;;;4455967;32;20539;-74
2021/05/04 04:18:50;;;;;;;11.10;6.67;;;4.00;99.90;;;;;;4457190;32;20376;-74
2021/05/04 04:21:16;;;;;;;12.60;7.30;;;4.00;99.90;;;;;;4456262;32;20158;-75
2021/05/04 04:23:42;;;;;;;16.00;7.13;;;4.00;99.90;;;;;;4457055;32;20150;-74
2021/05/04 04:26:09;;;;;;;10.53;6.63;;;4.20;99.90;;;;;;4455876;32;20188;-74
2021/05/04 04:28:35;;;;;;;11.57;6.60;;;4.30;99.90;;;;;;4456704;32;20183;-74
2021/05/04 04:31:02;;;;;;;10.70;6.40;;;4.30;99.90;;;;;;4455781;32;20203;-74
2021/05/04 04:33:28;;;;;;;11.93;6.53;;;4.30;99.90;;;;;;4456275;32;20162;-74
2021/05/04 04:35:56;;;;;;;14.07;7.07;;;4.40;99.90;;;;;;4455662;32;20148;-74
2021/05/04 04:38:24;;;;;;;12.83;6.57;;;4.50;99.90;;;;;;4456004;32;20180;-73
2021/05/04 04:40:51;;;;;;;10.80;6.80;;;4.60;99.90;;;;;;4455667;32;20401;-74
2021/05/04 04:43:17;;;;;;;11.97;6.83;;;4.70;99.90;;;;;;4455713;32;20139;-74
2021/05/04 04:45:44;;;;;;;11.37;6.80;;;4.70;99.90;;;;;;4457025;32;20154;-74
2021/05/04 04:48:10;;;;;;;11.30;6.37;;;4.80;99.90;;;;;;4456237;32;20520;-74
2021/05/04 04:50:36;;;;;;;13.50;6.37;;;4.90;99.90;;;;;;4455564;32;20140;-74
2021/05/04 04:53:03;;;;;;;10.60;6.77;;;4.90;99.90;;;;;;4457097;32;20206;-74
2021/05/04 04:55:30;;;;;;;11.77;6.90;;;4.90;99.90;;;;;;4455304;32;20358;-74
2021/05/04 04:57:57;;;;;;;10.70;6.90;;;4.90;99.90;;;;;;4454994;32;20144;-74
2021/05/04 05:00:23;;;;;;;12.90;6.97;;;5.00;99.90;;;;;;4455068;32;20181;-74
2021/05/04 05:02:50;;;;;;;11.77;6.93;;;5.00;99.90;;;;;;4455404;32;20142;-74
2021/05/04 05:05:16;;;;;;;12.03;6.70;;;5.10;99.90;;;;;;4455408;32;20145;-74
2021/05/04 05:07:43;;;;;;;12.60;6.87;;;5.10;99.90;;;;;;4454328;32;20157;-74
2021/05/04 05:10:10;;;;;;;16.13;6.90;;;5.30;99.90;;;;;;4455238;32;20207;-70
2021/05/04 05:12:37;;;;;;;10.93;6.70;;;5.40;99.90;;;;;;4455416;32;20521;-69
2021/05/04 05:15:05;;;;;;;12.07;6.80;;;5.50;99.90;;;;;;4456865;32;20187;-70
2021/05/04 05:17:32;;;;;;;12.90;6.50;;;5.70;99.90;;;;;;4456716;32;20383;-70
2021/05/04 05:19:58;;;;;;;11.43;6.27;;;5.80;99.90;;;;;;4455070;32;20147;-70
2021/05/04 05:22:26;;;;;;;10.83;6.20;;;5.90;99.90;;;;;;4454588;32;20144;-70
2021/05/04 05:24:57;;;;;;;13.23;6.90;;;6.10;99.90;;;;;;4441497;32;20197;-69
2021/05/04 05:27:24;;;;;;;10.00;6.23;;;6.20;99.90;;;;;;4456525;32;20154;-68
2021/05/04 05:29:50;;;;;;;10.93;6.33;;;6.30;99.90;;;;;;4455912;32;20150;-69
2021/05/04 05:32:19;;;;;;;11.53;6.20;;;6.40;99.90;;;;;;4456357;32;20137;-68
2021/05/04 05:34:46;;;;;;;9.33;5.83;;;6.50;99.90;;;;;;4455355;32;20174;-71
2021/05/04 05:37:12;;;;;;;12.33;6.03;;;6.50;99.90;;;;;;4454946;32;20215;-70
2021/05/04 05:39:43;;;;;;;10.70;5.60;;;6.50;99.90;;;;;;4455035;32;20140;-70
2021/05/04 05:42:11;;;;;;;10.20;6.00;;;6.70;99.90;;;;;;4456435;32;20151;-70
2021/05/04 05:44:37;;;;;;;11.07;5.87;;;6.80;99.90;;;;;;4456165;32;20212;-71
2021/05/04 05:47:04;;;;;;;9.07;5.53;;;6.90;99.90;;;;;;4454764;32;20445;-71
2021/05/04 05:49:31;;;;;;;9.57;5.70;;;7.20;99.90;;;;;;4456459;32;20227;-69
2021/05/04 05:51:58;;;;;;;8.17;5.40;;;7.40;99.90;;;;;;4455667;32;20480;-70
2021/05/04 05:54:25;;;;;;;11.77;5.70;;;7.50;99.90;;;;;;4454583;32;20168;-70
2021/05/04 05:56:55;;;;;;;9.70;5.10;;;7.60;99.90;;;;;;4455625;32;20209;-70
2021/05/04 05:59:22;;;;;;;8.50;5.43;;;7.80;99.90;;;;;;4458357;32;20168;-70
2021/05/04 06:01:48;;;;;;;10.13;5.00;;;7.80;99.90;;;;;;4457942;32;20150;-70
2021/05/04 06:04:15;;;;;;;7.37;5.33;;;7.90;99.90;;;;;;4459234;32;20157;-70
2021/05/04 06:06:41;;;;;;;7.93;5.07;;;8.10;99.90;;;;;;4458345;32;20143;-71
2021/05/04 06:09:08;;;;;;;9.23;5.20;;;8.30;99.90;;;;;;4458106;32;20154;-70
2021/05/04 06:11:35;;;;;;;10.17;5.40;;;8.40;99.90;;;;;;4459295;32;20401;-71
2021/05/04 06:14:02;;;;;;;10.63;5.70;;;8.60;99.90;;;;;;4458453;32;20504;-70
2021/05/04 06:16:29;;;;;;;7.50;4.70;;;8.70;99.90;;;;;;4457786;32;20146;-71
2021/05/04 06:18:55;;;;;;;7.40;4.57;;;8.70;99.90;;;;;;4457664;32;20518;-70
2021/05/04 06:21:27;;;;;;;9.37;4.90;;;8.70;97.90;;;;;;4459206;32;20161;-71
2021/05/04 06:23:53;;;;;;;6.13;4.40;;;8.60;95.80;;;;;;4457612;32;20217;-71
2021/05/04 06:26:21;;;;;;;7.07;4.33;;;8.60;96.40;;;;;;4457591;32;20185;-70
2021/05/04 06:28:49;;;;;;;7.67;4.67;;;8.60;95.50;;;;;;4458446;32;20162;-69
2021/05/04 06:31:16;;;;;;;7.37;4.10;;;8.80;95.00;;;;;;4457319;32;20162;-70
2021/05/04 06:33:43;;;;;;;7.33;4.40;;;9.00;95.00;;;;;;4458734;32;20169;-70
2021/05/04 06:36:10;;;;;;;8.73;4.50;;;9.20;94.10;;;;;;4457653;32;20210;-71
2021/05/04 06:38:37;;;;;;;7.77;4.60;;;9.30;93.30;;;;;;4457301;32;20169;-71
2021/05/04 06:41:04;;;;;;;7.97;4.70;;;9.30;91.60;;;;;;4457133;32;20139;-71
2021/05/04 06:43:31;;;;;;;7.33;4.57;;;9.40;92.10;;;;;;4458218;32;20141;-70
2021/05/04 06:45:59;;;;;;;6.90;4.63;;;9.50;92.10;;;;;;4457200;32;20154;-69
2021/05/04 06:48:26;;;;;;;10.43;4.90;;;9.60;91.10;;;;;;4457160;32;20173;-69
2021/05/04 06:50:53;;;;;;;7.47;4.40;;;9.50;90.90;;;;;;4457973;32;20166;-70
2021/05/04 06:53:19;;;;;;;6.77;4.20;;;9.60;91.30;;;;;;4458062;32;20194;-71
2021/05/04 06:55:48;;;;;;;8.03;4.40;;;9.70;90.60;;;;;;4456939;32;20254;-71
2021/05/04 06:58:15;;;;;;;8.90;4.30;;;9.80;90.70;;;;;;4456912;32;20193;-71
2021/05/04 07:00:42;;;;;;;7.00;3.70;;;10.10;90.60;;;;;;4456996;32;20154;-69
2021/05/04 07:03:08;;;;;;;6.90;3.80;;;10.10;83.90;;;;;;4458279;32;20150;-70
2021/05/04 07:05:34;;;;;;;6.50;4.07;;;10.30;84.10;;;;;;4457032;32;20161;-70
2021/05/04 07:08:01;;;;;;;8.70;3.73;;;10.40;82.60;;;;;;4456538;32;20150;-70
2021/05/04 07:10:27;;;;;;;5.93;3.60;;;10.50;81.20;;;;;;4456747;32;20168;-70
2021/05/04 07:12:54;;;;;;;5.07;3.37;;;10.50;80.70;;;;;;4442799;32;20464;-70
2021/05/04 07:15:21;;;;;;;5.87;4.17;;;10.60;79.00;;;;;;4458145;32;20230;-70
2021/05/04 07:17:47;;;;;;;6.47;3.63;;;10.60;79.30;;;;;;4456090;32;20192;-70
2021/05/04 07:20:19;;;;;;;6.13;3.30;;;10.70;78.60;;;;;;4456617;32;20496;-71
2021/05/04 07:22:47;;;;;;;6.70;3.63;;;10.80;78.40;;;;;;4457391;32;20189;-70
2021/05/04 07:25:13;;;;;;;6.20;4.10;;;10.90;76.30;;;;;;4457653;32;20143;-69
2021/05/04 07:27:40;;;;;;;7.43;3.57;;;11.00;75.80;;;;;;4457946;32;20150;-71
2021/05/04 07:30:07;;;;;;;6.37;3.73;;;11.00;75.10;;;;;;4456490;32;20195;-70
2021/05/04 07:32:33;;;;;;;5.40;3.37;;;11.20;74.50;;;;;;4456620;32;20137;-69
2021/05/04 07:35:01;;;;;;;5.27;3.60;;;11.30;73.30;;;;;;4456599;32;20456;-70
2021/05/04 07:37:28;;;;;;;7.30;3.60;;;11.40;72.70;;;;;;4457967;32;20208;-70
2021/05/04 07:39:54;;;;;;;6.90;3.47;;;11.60;72.10;;;;;;4456914;32;20183;-70
2021/05/04 07:42:20;;;;;;;5.00;3.40;;;11.70;69.40;;;;;;4456552;32;20138;-72
2021/05/04 07:44:47;;;;;;;4.57;3.27;;;11.80;71.10;;;;;;4456369;32;20143;-71
2021/05/04 07:47:14;;;;;;;6.20;3.30;;;11.90;68.50;;;;;;4455659;32;20450;-72
2021/05/04 07:49:45;;;;;;;5.03;3.17;;;11.90;67.30;;;;;;4455659;32;20150;-72
2021/05/04 07:52:12;;;;;;;7.93;4.37;;;11.90;68.10;;;;;;4457342;32;20172;-71
2021/05/04 07:54:40;;;;;;;5.37;3.57;;;11.90;66.90;;;;;;4457456;32;20196;-72
2021/05/04 07:57:07;;;;;;;5.10;3.33;;;11.80;66.90;;;;;;4456288;32;20346;-69
2021/05/04 07:59:34;;;;;;;4.20;3.00;;;11.80;66.70;;;;;;4456139;32;20198;-71
2021/05/04 08:02:02;;;;;;;4.77;3.13;;;11.90;66.40;;;;;;4456247;32;20229;-71
2021/05/04 08:04:30;;;;;;;5.40;3.07;;;12.00;66.80;;;;;;4455991;32;20154;-72
2021/05/04 08:07:00;;;;;;;6.00;3.80;;;12.30;66.80;;;;;;4455844;32;20155;-71
2021/05/04 08:09:27;;;;;;;5.80;3.10;;;12.50;64.40;;;;;;4457532;32;20193;-71
2021/05/04 08:11:54;;;;;;;5.20;3.27;;;13.00;62.70;;;;;;4456137;32;20373;-70
2021/05/04 08:14:22;;;;;;;5.47;3.40;;;13.50;60.40;;;;;;4455901;32;20151;-70
2021/05/04 08:16:57;;;;;;;4.80;3.60;;;13.90;58.60;;;;;;4450344;32;20494;-70
2021/05/04 08:19:39;;;;;;;4.80;3.33;;;13.90;57.20;;;;;;4441494;32;20540;-71
2021/05/04 08:22:39;;;;;;;4.87;3.27;;;14.20;58.30;;;;;;4432186;32;20227;-71
2021/05/04 08:25:23;;;;;;;5.23;3.20;;;14.60;55.80;;;;;;4440212;32;20162;-71
2021/05/04 08:28:04;;;;;;;4.80;3.10;;;14.50;57.20;;;;;;4441499;32;20488;-71
2021/05/04 08:30:47;;;;;;;5.30;3.20;;;14.80;56.10;;;;;;4440763;32;20209;-70
2021/05/04 08:33:14;;;;;;;4.00;2.83;;;15.00;54.20;;;;;;4445346;32;20472;-71
2021/05/04 08:35:41;;;;;;;3.60;2.90;;;14.80;52.80;;;;;;4447521;32;20154;-72
2021/05/04 08:38:08;;;;;;;4.03;2.80;;;14.70;52.90;;;;;;4449707;32;20161;-72
2021/05/04 08:40:34;;;;;;;6.43;3.10;;;14.90;53.30;;;;;;4448916;32;20176;-71
2021/05/04 08:43:00;;;;;;;4.57;2.73;;;15.00;52.30;;;;;;4448084;32;20158;-72
2021/05/04 08:45:32;;;;;;;7.03;3.07;;;15.30;52.70;;;;;;4445878;32;20153;-72
2021/05/04 08:47:59;;;;;;;5.77;3.03;;;15.30;51.40;;;;;;4446148;32;20217;-71
2021/05/04 08:50:27;;;;;;;4.60;3.03;;;15.00;50.80;;;;;;4452005;32;20212;-71
2021/05/04 08:52:54;;;;;;;4.43;2.90;;;14.50;52.00;;;;;;4442378;32;20130;-70
2021/05/04 08:55:21;;;;;;;4.63;2.90;;;14.60;52.30;;;;;;4448164;32;20226;-71
2021/05/04 08:57:48;;;;;;;4.10;2.93;;;14.60;52.70;;;;;;4447418;32;20562;-72
2021/05/04 09:00:24;;;;;;;4.47;2.90;;;14.70;52.80;;;;;;4443554;32;20464;-71
2021/05/04 09:03:08;;;;;;;4.57;3.10;;;14.70;52.60;;;;;;4452543;32;20187;-71
2021/05/04 09:05:37;;;;;;;5.20;3.10;;;14.70;52.40;;;;;;4446366;32;20150;-71
2021/05/04 09:08:08;;;;;;;4.50;2.97;;;14.80;51.20;;;;;;4445115;32;20484;-71
2021/05/04 09:10:48;;;;;;;3.60;2.80;;;14.90;52.60;;;;;;4452417;32;20431;-71
2021/05/04 09:13:19;;;;;;;4.93;2.80;;;14.90;51.70;;;;;;4445913;32;20217;-71
2021/05/04 09:21:34;;;;;;;7.63;3.20;;;15.50;50.40;;;;;;4443886;32;20162;-72
2021/05/04 09:24:18;;;;;;;5.40;2.57;;;15.80;49.00;;;;;;4445518;32;20150;-71
2021/05/04 09:26:45;;;;;;;4.20;2.47;;;15.70;49.20;;;;;;4452077;32;20150;-71
2021/05/04 09:29:15;;;;;;;4.23;2.50;;;16.10;48.60;;;;;;4443291;32;20158;-72
2021/05/04 09:31:42;;;;;;;3.50;2.43;;;16.10;48.20;;;;;;4452047;32;20441;-71
2021/05/04 09:34:13;;;;;;;3.70;2.37;;;16.50;48.60;;;;;;4451840;32;20225;-72
2021/05/04 09:36:49;;;;;;;3.20;2.40;;;16.90;46.90;;;;;;4445263;32;20206;-71
2021/05/04 09:39:27;;;;;;;3.97;2.50;;;17.30;45.40;;;;;;4452792;32;20146;-71
2021/05/04 09:41:56;;;;;;;4.60;2.60;;;17.70;44.60;;;;;;4451057;32;20222;-71
2021/05/04 09:44:48;;;;;;;3.37;2.40;;;17.20;45.50;;;;;;4447761;32;20567;-71
2021/05/04 09:47:22;;;;;;;3.17;2.23;;;16.80;44.80;;;;;;4442726;32;20192;-72
2021/05/04 09:49:49;;;;;;;4.63;2.23;;;16.70;44.60;;;;;;4457200;32;20217;-72
2021/05/04 09:52:46;;;;;;;3.23;2.10;;;16.90;43.30;;;;;;4445503;32;20146;-72
2021/05/04 09:55:15;;;;;;;3.30;2.10;;;17.10;43.40;;;;;;4442354;32;20186;-71
2021/05/04 09:57:43;;;;;;;5.00;2.30;;;17.50;44.30;;;;;;4442331;32;20214;-71
2021/05/04 10:00:21;;;;;;;4.73;2.13;;;17.80;44.20;;;;;;4442479;32;20453;-71
2021/05/04 10:02:48;;;;;;;2.90;1.77;;;17.80;43.20;;;;;;4443471;32;20507;-71
2021/05/04 10:05:20;;;;;;;4.87;1.70;;;17.80;40.50;;;;;;4442271;32;20506;-71
2021/05/04 10:07:47;;;;;;;3.43;1.97;;;17.60;40.50;;;;;;4442214;32;20237;-70
2021/05/04 10:10:16;;;;;;;3.80;2.13;;;17.70;40.80;;;;;;4441791;32;20146;-71
2021/05/04 10:12:45;;;;;;;2.70;2.00;;;17.70;41.10;;;;;;4443493;32;20151;-70
2021/05/04 10:15:13;;;;;;;4.83;2.50;;;17.80;41.00;;;;;;4442245;32;20498;-71
2021/05/04 10:17:41;;;;;;;4.93;2.27;;;17.70;40.50;;;;;;4448170;32;20180;-72
2021/05/04 10:20:19;;;;;;;4.20;2.00;;;17.90;41.40;;;;;;4452191;32;20556;-71
2021/05/04 10:22:47;;;;;;;4.10;2.13;;;18.20;40.40;;;;;;4458772;32;20196;-71
2021/05/04 10:25:19;;;;;;;3.13;2.20;;;18.20;41.00;;;;;;4457892;32;20150;-71
2021/05/04 10:27:50;;;;;;;4.60;2.30;;;18.10;39.70;;;;;;4459091;32;20151;-71
2021/05/04 10:30:19;;;;;;;4.13;2.17;;;18.20;40.50;;;;;;4458673;32;20169;-71
2021/05/04 10:32:55;;;;;;;3.90;2.17;;;17.90;40.80;;;;;;4457424;32;20150;-71
2021/05/04 10:35:32;;;;;;;3.00;2.20;;;17.50;42.10;;;;;;4457449;32;20153;-71
2021/05/04 10:38:02;;;;;;;3.37;2.30;;;17.30;42.60;;;;;;4457458;32;20565;-70
2021/05/04 10:40:31;;;;;;;5.13;2.30;;;17.20;42.80;;;;;;4458224;32;20158;-71
2021/05/04 10:43:22;;;;;;;7.00;2.40;;;16.90;43.70;;;;;;4458597;32;20257;-71
2021/05/04 10:45:49;;;;;;;4.20;2.50;;;16.60;43.40;;;;;;4457033;32;20150;-71
2021/05/04 10:48:16;;;;;;;3.47;2.60;;;16.50;44.10;;;;;;4458533;32;20177;-70
2021/05/04 10:50:51;;;;;;;4.03;2.40;;;16.10;45.70;;;;;;4458203;32;20162;-70
2021/05/04 10:53:19;;;;;;;4.17;2.50;;;15.70;45.60;;;;;;4455427;32;20168;-70
2021/05/04 10:55:51;;;;;;;3.73;2.40;;;15.50;46.30;;;;;;4456693;32;20425;-71
2021/05/04 10:58:25;;;;;;;5.50;2.60;;;15.50;47.40;;;;;;4456974;32;20157;-71
2021/05/04 11:00:58;;;;;;;4.27;2.63;;;15.60;47.40;;;;;;4457813;32;20498;-71
2021/05/04 11:03:31;;;;;;;4.37;2.40;;;15.60;47.10;;;;;;4456949;32;20221;-71
2021/05/04 11:06:08;;;;;;;3.63;2.57;;;15.50;47.40;;;;;;4458407;32;20173;-70
2021/05/04 11:08:43;;;;;;;2.93;2.37;;;15.40;48.00;;;;;;4457868;32;20198;-71
2021/05/04 11:11:19;;;;;;;4.37;2.57;;;15.50;48.60;;;;;;4458577;32;20194;-70
2021/05/04 11:13:47;;;;;;;4.50;2.40;;;15.50;47.40;;;;;;4456969;32;20138;-71
2021/05/04 11:16:44;;;;;;;4.13;2.60;;;15.30;47.90;;;;;;4456795;32;20166;-70
2021/05/04 11:19:32;;;;;;;4.90;2.70;;;15.20;48.10;;;;;;4456053;32;20161;-70
2021/05/04 11:21:58;;;;;;;3.20;2.50;;;15.10;48.70;;;;;;4457583;32;20146;-74
2021/05/04 11:24:31;;;;;;;3.37;2.37;;;15.10;48.70;;;;;;4455406;32;20196;-75
2021/05/04 11:27:16;;;;;;;5.00;3.00;;;15.00;49.30;;;;;;4456518;32;20191;-77
2021/05/04 11:29:46;;;;;;;4.53;2.40;;;15.20;49.20;;;;;;4442516;32;20161;-84
2021/05/04 11:32:14;;;;;;;3.43;2.40;;;15.40;49.70;;;;;;4457543;32;20179;-83
2021/05/04 11:34:46;;;;;;;3.03;2.20;;;15.60;48.50;;;;;;4457470;32;20165;-78
2021/05/04 11:37:39;;;;;;;4.70;2.50;;;15.70;49.30;;;;;;4456645;32;20499;-78
2021/05/04 11:40:18;;;;;;;2.77;2.03;;;15.80;48.20;;;;;;4455502;32;20192;-78
2021/05/04 11:42:47;;;;;;;3.97;2.10;;;16.30;50.00;;;;;;4457777;32;20537;-77
2021/05/04 11:45:17;;;;;;;5.03;2.33;;;16.20;47.40;;;;;;4456213;32;20150;-78
2021/05/04 11:47:54;;;;;;;3.40;2.30;;;16.30;48.30;;;;;;4456402;32;20157;-78
2021/05/04 11:50:31;;;;;;;3.93;2.33;;;16.30;47.60;;;;;;4457072;32;20146;-79
2021/05/04 11:53:04;;;;;;;4.03;2.60;;;16.10;48.40;;;;;;4456968;32;20209;-78
2021/05/04 11:55:39;;;;;;;4.80;2.10;;;16.30;48.60;;;;;;4456793;32;20166;-77
2021/05/04 11:58:18;;;;;;;3.50;2.23;;;16.40;47.40;;;;;;4457155;32;20228;-77
2021/05/04 12:00:45;;;;;;;3.13;2.00;;;16.40;48.70;;;;;;4456138;32;20134;-78
2021/05/04 12:03:14;;;;;;;3.83;2.10;;;16.90;48.20;;;;;;4456530;32;20502;-77
2021/05/04 12:05:42;;;;;;;3.13;2.30;;;16.80;47.10;;;;;;4456035;32;20501;-78
2021/05/04 12:08:10;;;;;;;2.93;2.00;;;16.70;47.80;;;;;;4456201;32;20519;-76
2021/05/04 12:10:47;;;;;;;2.87;2.23;;;16.40;48.10;;;;;;4456135;32;20190;-79
2021/05/04 12:13:27;;;;;;;3.87;2.33;;;16.40;48.60;;;;;;4457516;32;20198;-78
2021/05/04 12:16:00;;;;;;;4.60;2.37;;;16.10;49.00;;;;;;4456496;32;20179;-78
2021/05/04 12:18:32;;;;;;;3.27;2.27;;;16.10;48.70;;;;;;4457865;32;20458;-76
2021/05/04 12:21:01;;;;;;;5.13;2.37;;;15.80;49.70;;;;;;4455931;32;20173;-76
2021/05/04 12:23:30;;;;;;;3.87;2.77;;;15.70;50.00;;;;;;4455488;32;20543;-76
2021/05/04 12:26:05;;;;;;;3.77;2.40;;;15.90;50.60;;;;;;4455697;32;20322;-77
2021/05/04 12:28:33;;;;;;;2.90;2.30;;;15.90;50.00;;;;;;4455657;32;20213;-77
2021/05/04 12:31:08;;;;;;;3.37;2.43;;;15.90;50.10;;;;;;4455470;32;20150;-77
2021/05/04 12:33:38;;;;;;;4.63;2.40;;;16.00;49.80;;;;;;4446536;32;20154;-78
2021/05/04 12:36:08;;;;;;;3.77;2.50;;;16.00;49.80;;;;;;4455739;32;20153;-76
2021/05/04 12:38:51;;;;;;;5.17;2.50;;;15.90;50.20;;;;;;4455851;32;20211;-78
2021/05/04 12:41:23;;;;;;;4.93;2.73;;;15.90;51.10;;;;;;4455658;32;20154;-76
2021/05/04 12:44:25;;;;;;;3.50;2.40;;;16.10;50.40;;;;;;4457042;32;20146;-78
2021/05/04 12:46:54;;;;;;;6.40;2.57;;;16.30;50.40;;;;;;4455824;32;20142;-75
2021/05/04 12:49:33;;;;;;;3.97;2.53;;;16.20;50.60;;;;;;4455568;32;20145;-79
2021/05/04 12:52:07;;;;;;;5.20;2.43;;;16.20;50.20;;;;;;4455530;32;20459;-77
2021/05/04 12:54:39;;;;;;;3.23;2.57;;;15.90;50.60;;;;;;4455266;32;20551;-77
2021/05/04 12:57:27;;;;;;;3.80;2.67;;;15.90;51.20;;;;;;4456714;32;20468;-78
2021/05/04 12:59:54;;;;;;;3.90;2.80;;;16.00;51.30;;;;;;4456157;32;20138;-77
2021/05/04 13:02:22;;;;;;;3.23;2.63;;;16.10;51.00;;;;;;4456792;32;20173;-76
2021/05/04 13:10:27;;;;;;;4.90;2.67;;;16.10;51.30;;;;;;4455113;32;20342;-75